Time;durP1;ratioP1;P1;durP2;ratioP2;P2;SDS_P1;SDS_P2;PMS_P1;PMS_P2;Temp;Humidity;BMP_temperature;BMP_pressure;BME280_temperature;BME280_humidity;BME280_pressure;Samples;Min_cycle;Max_cycle;Signal;HPM_P1;HPM_P2
2022/10/17 00:01:53;;;;;;;34.53;26.47;;;14.80;99.90;;;;;;6075029;23;20417;-88
2022/10/17 00:04:20;;;;;;;33.27;25.43;;;14.90;99.90;;;;;;6077802;23;20411;-88
2022/10/17 00:06:48;;;;;;;34.90;25.30;;;14.80;99.90;;;;;;6077387;23;20398;-88
2022/10/17 00:09:15;;;;;;;35.57;25.23;;;14.70;99.90;;;;;;6099932;23;20409;-89
2022/10/17 00:11:43;;;;;;;28.23;24.38;;;14.60;99.90;;;;;;6102689;23;20401;-88
2022/10/17 00:14:10;;;;;;;35.60;24.67;;;14.60;99.90;;;;;;6077500;23;20266;-89
2022/10/17 00:16:38;;;;;;;38.40;26.63;;;14.70;99.90;;;;;;6076022;23;20419;-88
2022/10/17 00:19:06;;;;;;;29.65;25.40;;;14.80;99.90;;;;;;6075035;23;20467;-88
2022/10/17 00:21:33;;;;;;;38.23;24.03;;;14.80;99.90;;;;;;6075981;23;20258;-86
2022/10/17 00:24:04;;;;;;;28.00;22.90;;;14.90;99.90;;;;;;6101233;23;20416;-86
2022/10/17 00:26:31;;;;;;;36.90;23.87;;;14.90;99.90;;;;;;6074530;23;20392;-87
2022/10/17 00:29:04;;;;;;;28.93;24.80;;;15.20;99.90;;;;;;6075224;23;20445;-87
2022/10/17 00:31:31;;;;;;;30.87;24.53;;;15.30;99.90;;;;;;6099422;23;20414;-88
2022/10/17 00:33:58;;;;;;;30.17;24.77;;;15.40;99.90;;;;;;6099750;23;20426;-88
2022/10/17 00:36:26;;;;;;;33.10;24.87;;;15.40;99.90;;;;;;6051230;23;20414;-88
2022/10/17 00:38:58;;;;;;;29.60;23.50;;;15.30;99.90;;;;;;6051854;23;20384;-88
2022/10/17 00:41:32;;;;;;;34.92;26.70;;;15.30;99.90;;;;;;6100838;23;20804;-87
2022/10/17 00:44:09;;;;;;;32.33;23.20;;;15.30;99.90;;;;;;6052647;23;20195;-88
2022/10/17 00:46:39;;;;;;;29.37;22.10;;;15.30;99.90;;;;;;6075890;23;20447;-89
2022/10/17 00:49:11;;;;;;;29.30;23.57;;;15.40;99.90;;;;;;6078351;23;20418;-90
2022/10/17 00:51:44;;;;;;;35.80;26.30;;;15.30;99.90;;;;;;6106354;23;20393;-92
2022/10/17 00:54:16;;;;;;;32.07;23.90;;;15.40;99.90;;;;;;6110534;23;20435;-89
2022/10/17 00:56:50;;;;;;;31.17;25.13;;;15.40;99.90;;;;;;6062112;23;20430;-92
2022/10/17 00:59:20;;;;;;;34.93;26.30;;;15.30;99.90;;;;;;6076715;23;20406;-90
2022/10/17 01:02:12;;;;;;;29.03;24.13;;;15.10;99.90;;;;;;6101435;23;21026;-91
2022/10/17 01:04:42;;;;;;;34.03;26.90;;;15.10;99.90;;;;;;6076987;23;20402;-90
2022/10/17 01:07:12;;;;;;;31.63;25.30;;;15.10;99.90;;;;;;6077638;23;20438;-90
2022/10/17 01:09:41;;;;;;;34.40;26.57;;;15.10;99.90;;;;;;6078133;23;20193;-90
2022/10/17 01:12:18;;;;;;;37.53;26.67;;;15.20;99.90;;;;;;6109623;23;20408;-88
2022/10/17 01:15:26;;;;;;;33.47;24.92;;;15.10;99.90;;;;;;6076417;23;20417;-89
2022/10/17 01:18:12;;;;;;;33.90;26.37;;;15.00;99.90;;;;;;6100327;23;20196;-89
2022/10/17 01:20:58;;;;;;;36.30;27.10;;;14.90;99.90;;;;;;6076345;23;20642;-89
2022/10/17 01:24:01;;;;;;;35.50;26.30;;;14.90;99.90;;;;;;6087186;23;20412;-88
2022/10/17 01:26:54;;;;;;;35.20;26.43;;;14.80;99.90;;;;;;6094380;23;20388;-90
2022/10/17 01:29:49;;;;;;;35.63;27.27;;;14.80;99.90;;;;;;6077666;23;20474;-89
2022/10/17 01:32:33;;;;;;;34.37;26.23;;;14.90;99.90;;;;;;6075153;23;20403;-89
2022/10/17 01:35:16;;;;;;;38.33;29.35;;;14.90;99.90;;;;;;6101306;23;20416;-89
2022/10/17 01:37:52;;;;;;;34.80;28.30;;;14.80;99.90;;;;;;6076560;23;20173;-90
2022/10/17 01:40:43;;;;;;;32.45;26.50;;;14.70;99.90;;;;;;6100855;23;20419;-90
2022/10/17 01:43:24;;;;;;;38.47;26.30;;;14.80;99.90;;;;;;6077517;23;20528;-89
2022/10/17 01:46:02;;;;;;;35.40;28.80;;;14.60;99.90;;;;;;6078444;23;20184;-89
2022/10/17 01:48:37;;;;;;;38.45;27.02;;;14.50;99.90;;;;;;6087070;23;20198;-90
2022/10/17 01:51:29;;;;;;;35.95;27.30;;;14.60;99.90;;;;;;6071311;23;20176;-90
2022/10/17 01:54:04;;;;;;;36.60;27.50;;;14.40;99.90;;;;;;6094310;23;20248;-89
2022/10/17 01:56:34;;;;;;;39.20;29.30;;;14.20;99.90;;;;;;6085219;23;20731;-89
2022/10/17 01:59:18;;;;;;;38.70;30.35;;;14.20;99.90;;;;;;6079097;23;20219;-88
2022/10/17 02:01:50;;;;;;;36.38;29.52;;;14.30;99.90;;;;;;6102558;23;20178;-88
2022/10/17 02:04:25;;;;;;;34.78;26.20;;;14.40;99.90;;;;;;6105811;23;20162;-88
2022/10/17 02:06:53;;;;;;;33.63;26.30;;;14.30;99.90;;;;;;6085805;23;20235;-87
2022/10/17 02:09:25;;;;;;;35.87;25.40;;;14.10;99.90;;;;;;6076608;23;20187;-88
2022/10/17 02:12:15;;;;;;;36.80;28.48;;;14.10;99.90;;;;;;6052351;23;20381;-88
2022/10/17 02:15:16;;;;;;;36.15;26.98;;;14.00;99.90;;;;;;6078255;23;20227;-88
2022/10/17 02:18:01;;;;;;;40.38;28.20;;;14.00;99.90;;;;;;6115169;23;20249;-86
2022/10/17 02:20:36;;;;;;;40.78;27.00;;;14.00;99.90;;;;;;6074055;23;20391;-87
2022/10/17 02:23:13;;;;;;;36.38;27.90;;;13.90;99.90;;;;;;6101056;23;20177;-89
2022/10/17 02:26:10;;;;;;;35.42;27.58;;;13.90;99.90;;;;;;6086983;23;20211;-86
2022/10/17 02:28:51;;;;;;;38.08;27.20;;;13.90;99.90;;;;;;6078875;23;20155;-87
2022/10/17 02:31:27;;;;;;;31.15;25.42;;;13.80;99.90;;;;;;6102632;23;20255;-89
2022/10/17 02:34:07;;;;;;;34.97;27.70;;;14.00;99.90;;;;;;6104612;23;20211;-87
2022/10/17 02:36:44;;;;;;;32.73;23.70;;;13.90;99.90;;;;;;6078609;23;20461;-88
2022/10/17 02:39:14;;;;;;;35.42;26.08;;;13.90;99.90;;;;;;6102686;23;20464;-88
2022/10/17 02:41:51;;;;;;;39.37;27.27;;;13.90;99.90;;;;;;6078787;23;20232;-86
2022/10/17 02:44:19;;;;;;;29.77;24.30;;;14.10;99.90;;;;;;6080080;23;20475;-88
2022/10/17 02:46:55;;;;;;;33.50;27.58;;;14.20;99.90;;;;;;6082466;23;20188;-90
2022/10/17 02:49:28;;;;;;;38.17;26.05;;;14.30;99.90;;;;;;6107484;23;20175;-88
2022/10/17 02:52:14;;;;;;;35.92;28.02;;;14.20;99.90;;;;;;6080921;23;20506;-87
2022/10/17 02:54:53;;;;;;;30.57;25.20;;;14.20;99.90;;;;;;6103880;23;20192;-88
2022/10/17 02:57:40;;;;;;;33.67;24.73;;;14.00;99.90;;;;;;6102852;23;20407;-86
2022/10/17 03:00:13;;;;;;;39.80;27.17;;;14.10;99.90;;;;;;6103131;23;20185;-87
2022/10/17 03:02:42;;;;;;;33.97;26.90;;;14.10;99.90;;;;;;6078006;23;20180;-84
2022/10/17 03:05:13;;;;;;;32.42;25.17;;;14.10;99.90;;;;;;6105649;23;20480;-85
2022/10/17 03:07:43;;;;;;;32.60;26.70;;;14.10;99.90;;;;;;6120242;23;20191;-87
2022/10/17 03:10:10;;;;;;;31.65;24.40;;;14.10;99.90;;;;;;6119592;23;20227;-88
2022/10/17 03:12:41;;;;;;;30.38;24.75;;;14.00;99.90;;;;;;6118453;23;20188;-87
2022/10/17 03:15:09;;;;;;;31.63;25.15;;;13.90;99.90;;;;;;6114544;23;20232;-88
2022/10/17 03:17:37;;;;;;;38.08;23.70;;;14.00;99.90;;;;;;6078524;23;20229;-86
2022/10/17 03:20:06;;;;;;;34.22;24.83;;;13.90;99.90;;;;;;6076793;23;20251;-85
2022/10/17 03:22:33;;;;;;;34.58;28.08;;;13.80;99.90;;;;;;6101827;23;20193;-86
2022/10/17 03:25:01;;;;;;;40.20;28.30;;;13.90;99.90;;;;;;6100200;23;20191;-88
2022/10/17 03:27:29;;;;;;;33.58;26.52;;;13.70;99.90;;;;;;6053237;23;20423;-86
2022/10/17 03:30:01;;;;;;;32.38;27.92;;;13.70;99.90;;;;;;6100455;23;20586;-86
2022/10/17 03:32:36;;;;;;;38.97;29.42;;;13.80;99.90;;;;;;6104588;23;20188;-87
2022/10/17 03:35:13;;;;;;;32.80;26.83;;;13.80;99.90;;;;;;6104027;23;20194;-87
2022/10/17 03:37:41;;;;;;;34.00;26.48;;;13.70;99.90;;;;;;6106407;23;20243;-87
2022/10/17 03:40:10;;;;;;;36.10;28.10;;;13.60;99.90;;;;;;6079023;23;20250;-87
2022/10/17 03:42:38;;;;;;;36.17;26.90;;;13.60;99.90;;;;;;6076378;23;20221;-86
2022/10/17 03:45:05;;;;;;;32.10;25.30;;;13.60;99.90;;;;;;6103239;23;20207;-90
2022/10/17 03:47:41;;;;;;;40.90;27.97;;;13.60;99.90;;;;;;6085618;23;20411;-87
2022/10/17 03:50:09;;;;;;;35.65;25.27;;;13.50;99.90;;;;;;6083565;23;20410;-87
2022/10/17 03:52:53;;;;;;;34.10;26.77;;;13.40;99.90;;;;;;6075405;23;20180;-88
2022/10/17 03:55:21;;;;;;;37.80;26.95;;;13.40;99.90;;;;;;6112887;23;20334;-87
2022/10/17 03:57:54;;;;;;;39.88;30.42;;;13.40;99.90;;;;;;6057716;23;20203;-87
2022/10/17 04:00:24;;;;;;;38.55;27.77;;;13.40;99.90;;;;;;6082897;23;20183;-85
2022/10/17 04:02:56;;;;;;;31.40;26.77;;;13.20;99.90;;;;;;6109064;23;20209;-87
2022/10/17 04:05:33;;;;;;;37.80;29.50;;;13.20;99.90;;;;;;6091627;23;20183;-88
2022/10/17 04:08:06;;;;;;;39.55;29.17;;;13.20;99.90;;;;;;6116999;23;20210;-88
2022/10/17 04:10:41;;;;;;;31.48;26.50;;;13.20;99.90;;;;;;6061840;23;20200;-89
2022/10/17 04:13:07;;;;;;;33.08;26.13;;;13.30;99.90;;;;;;6079998;23;20201;-89
2022/10/17 04:15:35;;;;;;;33.97;26.75;;;13.20;99.90;;;;;;6054582;23;20203;-89
2022/10/17 04:18:03;;;;;;;39.05;27.95;;;13.20;99.90;;;;;;6102761;23;20205;-89
2022/10/17 04:20:33;;;;;;;38.33;28.02;;;13.10;99.90;;;;;;6103703;23;20190;-84
2022/10/17 04:23:03;;;;;;;35.28;29.13;;;13.00;99.90;;;;;;6102709;23;20192;-89
2022/10/17 04:25:42;;;;;;;35.63;29.30;;;13.00;99.90;;;;;;6077529;23;20518;-84
2022/10/17 04:28:09;;;;;;;38.47;27.52;;;13.00;99.90;;;;;;6061066;23;20167;-88
2022/10/17 04:30:40;;;;;;;39.58;27.75;;;13.00;99.90;;;;;;6114823;23;20241;-87
2022/10/17 04:33:19;;;;;;;46.00;29.80;;;12.80;99.90;;;;;;6106414;23;20198;-87
2022/10/17 04:36:10;;;;;;;39.53;29.40;;;12.70;99.90;;;;;;6056142;23;20553;-85
2022/10/17 04:38:39;;;;;;;38.65;30.02;;;12.80;99.90;;;;;;6079908;23;20182;-91
2022/10/17 04:41:10;;;;;;;36.10;27.90;;;12.70;99.90;;;;;;6084105;23;20174;-88
2022/10/17 04:43:38;;;;;;;40.15;29.02;;;12.70;99.90;;;;;;6105740;23;20198;-86
2022/10/17 04:46:09;;;;;;;39.53;28.73;;;12.70;99.90;;;;;;6040031;23;20178;-86
2022/10/17 04:48:38;;;;;;;41.60;30.35;;;12.70;99.90;;;;;;6069336;23;20181;-88
2022/10/17 04:51:11;;;;;;;36.78;30.17;;;12.80;99.90;;;;;;6094341;23;20298;-88
2022/10/17 04:56:35;;;;;;;40.38;31.00;;;12.80;99.90;;;;;;6107934;23;20202;-87
2022/10/17 04:59:05;;;;;;;38.35;30.85;;;12.80;99.90;;;;;;6081969;23;20221;-87
2022/10/17 05:01:35;;;;;;;36.10;29.50;;;12.80;99.90;;;;;;6106685;23;20187;-87
2022/10/17 05:04:04;;;;;;;41.08;31.40;;;12.70;99.90;;;;;;6109572;23;20187;-87
2022/10/17 05:06:36;;;;;;;39.00;30.38;;;12.70;99.90;;;;;;6110658;23;20186;-88
2022/10/17 05:09:06;;;;;;;43.03;31.30;;;12.70;99.90;;;;;;6108650;23;20186;-86
2022/10/17 05:11:41;;;;;;;41.20;31.25;;;12.70;99.90;;;;;;6181750;23;20178;-87
2022/10/17 05:14:08;;;;;;;43.30;31.08;;;12.70;99.90;;;;;;6210888;23;20234;-82
2022/10/17 05:16:36;;;;;;;43.00;31.60;;;12.70;99.90;;;;;;6112360;23;20198;-89
2022/10/17 05:19:03;;;;;;;49.33;31.10;;;12.70;99.90;;;;;;6108189;23;20242;-87
2022/10/17 05:21:32;;;;;;;40.00;29.75;;;12.70;99.90;;;;;;6206029;23;20178;-89
2022/10/17 05:24:01;;;;;;;35.90;28.42;;;12.70;99.90;;;;;;6107783;23;20456;-88
2022/10/17 05:26:28;;;;;;;39.97;28.92;;;12.70;99.90;;;;;;6110186;23;20178;-88
2022/10/17 05:29:06;;;;;;;40.35;30.95;;;12.70;99.90;;;;;;6088894;22;20178;-89
2022/10/17 05:31:39;;;;;;;47.97;31.20;;;12.90;99.90;;;;;;6065598;23;20180;-88
2022/10/17 05:34:10;;;;;;;45.13;31.48;;;12.90;99.90;;;;;;6216482;22;20167;-89
2022/10/17 05:36:42;;;;;;;41.67;30.98;;;13.00;99.90;;;;;;6116626;23;20187;-89
2022/10/17 05:39:13;;;;;;;42.33;30.27;;;12.90;99.90;;;;;;6110420;23;20540;-88
2022/10/17 05:41:41;;;;;;;37.60;30.40;;;12.90;99.90;;;;;;6107956;23;20441;-89
2022/10/17 05:44:13;;;;;;;38.13;29.10;;;12.90;99.90;;;;;;6107447;23;20174;-89
2022/10/17 05:46:40;;;;;;;39.65;31.48;;;13.00;99.90;;;;;;6107441;23;20186;-90
2022/10/17 05:49:09;;;;;;;46.08;29.70;;;13.10;99.90;;;;;;6079798;23;20185;-89
2022/10/17 05:51:56;;;;;;;36.15;28.52;;;13.10;99.90;;;;;;6080436;23;20183;-86
2022/10/17 05:54:25;;;;;;;33.05;27.17;;;13.10;99.90;;;;;;6078679;23;20182;-90
2022/10/17 05:56:53;;;;;;;41.72;28.73;;;13.20;99.90;;;;;;6080424;23;20229;-81
2022/10/17 05:59:20;;;;;;;38.25;27.50;;;13.20;99.90;;;;;;6103896;23;20186;-89
2022/10/17 06:01:50;;;;;;;38.47;27.13;;;13.10;99.90;;;;;;6177602;23;20234;-84
2022/10/17 06:04:35;;;;;;;36.78;25.88;;;13.30;99.90;;;;;;6104025;23;20181;-89
2022/10/17 06:07:03;;;;;;;38.72;29.50;;;13.20;99.90;;;;;;6109990;23;20512;-88
2022/10/17 06:09:35;;;;;;;35.78;26.65;;;13.30;99.90;;;;;;6107048;23;20483;-87
2022/10/17 06:12:04;;;;;;;31.73;27.48;;;13.30;99.90;;;;;;6080487;23;20210;-87
2022/10/17 06:14:32;;;;;;;33.03;24.65;;;13.40;99.90;;;;;;6081919;23;20191;-88
2022/10/17 06:16:59;;;;;;;42.05;28.58;;;13.40;99.90;;;;;;6079585;23;20246;-89
2022/10/17 06:19:30;;;;;;;32.67;28.15;;;13.40;99.90;;;;;;6081505;23;20187;-88
2022/10/17 06:22:00;;;;;;;38.78;26.00;;;13.70;99.90;;;;;;6083309;23;20209;-90
2022/10/17 06:24:31;;;;;;;30.98;22.63;;;13.70;99.90;;;;;;6109442;23;20425;-90
2022/10/17 06:26:59;;;;;;;35.92;24.83;;;13.70;99.90;;;;;;6083909;23;20188;-88
2022/10/17 06:29:27;;;;;;;30.73;24.40;;;13.90;99.90;;;;;;6106742;23;20167;-88
2022/10/17 06:31:57;;;;;;;28.48;23.48;;;14.00;99.90;;;;;;6105617;23;20183;-87
2022/10/17 06:34:24;;;;;;;31.10;24.30;;;14.10;99.90;;;;;;6105216;23;20256;-89
2022/10/17 06:36:52;;;;;;;30.00;21.00;;;14.20;99.90;;;;;;6083758;23;20204;-88
2022/10/17 06:39:19;;;;;;;33.08;23.08;;;14.20;99.90;;;;;;6081769;23;20207;-87
2022/10/17 06:41:46;;;;;;;32.67;22.00;;;14.20;99.90;;;;;;6082791;22;20213;-89
2022/10/17 06:44:17;;;;;;;31.53;19.50;;;14.30;99.90;;;;;;6120157;23;20179;-87
2022/10/17 06:46:45;;;;;;;30.48;22.75;;;14.50;99.90;;;;;;6216068;23;20399;-88
2022/10/17 06:49:18;;;;;;;29.60;20.80;;;14.50;99.90;;;;;;6093123;23;20175;-84
2022/10/17 06:52:07;;;;;;;31.47;22.70;;;14.60;99.90;;;;;;6109516;23;20402;-87
2022/10/17 06:54:39;;;;;;;30.33;22.75;;;14.60;99.90;;;;;;6082386;23;20375;-82
2022/10/17 06:57:06;;;;;;;28.48;20.83;;;14.70;99.90;;;;;;6202160;23;20245;-86
2022/10/17 06:59:33;;;;;;;30.47;22.50;;;14.70;99.90;;;;;;6078369;23;20349;-88
2022/10/17 07:02:01;;;;;;;30.70;20.77;;;14.80;99.90;;;;;;6103999;23;20407;-86
2022/10/17 07:04:32;;;;;;;27.40;21.17;;;14.80;99.90;;;;;;6106118;23;20675;-83
2022/10/17 07:07:01;;;;;;;28.27;20.65;;;14.90;99.90;;;;;;6105484;23;20455;-84
2022/10/17 07:09:32;;;;;;;26.55;20.35;;;15.10;99.90;;;;;;6105810;23;20364;-85
2022/10/17 07:12:07;;;;;;;24.80;19.23;;;15.40;99.90;;;;;;6078784;23;20214;-85
2022/10/17 07:14:34;;;;;;;24.93;17.73;;;15.70;99.90;;;;;;6103883;23;20505;-85
2022/10/17 07:17:04;;;;;;;24.88;18.30;;;16.30;99.90;;;;;;6102584;23;20519;-86
2022/10/17 07:19:32;;;;;;;26.73;20.30;;;16.80;99.90;;;;;;6076450;23;20834;-83
2022/10/17 07:22:00;;;;;;;27.23;20.70;;;17.20;99.90;;;;;;6103113;23;20400;-83
2022/10/17 07:24:27;;;;;;;26.53;20.97;;;17.80;99.90;;;;;;6105720;22;20426;-83
2022/10/17 07:26:56;;;;;;;25.30;19.93;;;19.00;99.90;;;;;;6078534;23;20451;-86
2022/10/17 07:29:28;;;;;;;28.20;18.83;;;20.00;99.90;;;;;;6079118;23;20353;-83
2022/10/17 07:31:56;;;;;;;21.40;19.07;;;20.60;99.90;;;;;;6103434;23;20450;-85
2022/10/17 07:34:29;;;;;;;21.77;19.10;;;21.10;99.90;;;;;;6103763;23;20359;-83
2022/10/17 07:36:56;;;;;;;20.77;17.30;;;21.80;99.90;;;;;;6104435;23;20736;-84
2022/10/17 07:39:24;;;;;;;23.80;16.93;;;22.70;99.90;;;;;;6056396;23;20424;-86
2022/10/17 07:41:51;;;;;;;18.97;16.90;;;23.00;99.90;;;;;;6104014;23;20424;-88
2022/10/17 07:44:26;;;;;;;17.37;15.67;;;23.10;99.90;;;;;;6079718;23;20472;-82
2022/10/17 07:46:55;;;;;;;18.87;16.90;;;23.70;99.90;;;;;;6201499;23;20736;-84
2022/10/17 07:49:28;;;;;;;19.07;17.07;;;24.00;99.90;;;;;;6079175;23;20381;-84
2022/10/17 07:51:58;;;;;;;21.63;16.43;;;23.90;99.90;;;;;;6079575;23;20430;-88
2022/10/17 07:54:28;;;;;;;25.03;17.53;;;24.30;99.90;;;;;;6106141;23;20406;-83
2022/10/17 07:56:57;;;;;;;20.17;17.00;;;24.10;99.90;;;;;;6105470;23;20430;-84
2022/10/17 07:59:26;;;;;;;18.83;16.93;;;25.30;99.90;;;;;;6056669;23;20375;-82
2022/10/17 08:01:58;;;;;;;17.63;15.63;;;26.40;99.90;;;;;;6109657;23;20399;-83
2022/10/17 08:04:25;;;;;;;17.93;15.70;;;26.20;99.90;;;;;;6119640;22;20404;-84
2022/10/17 08:06:53;;;;;;;17.30;15.50;;;26.80;99.90;;;;;;6219198;23;20387;-84
2022/10/17 08:09:37;;;;;;;17.80;15.90;;;26.90;99.90;;;;;;6096928;22;20414;-85
2022/10/17 08:12:06;;;;;;;17.57;15.67;;;26.70;99.90;;;;;;6091935;23;20426;-84
2022/10/17 08:14:38;;;;;;;17.93;16.10;;;27.10;99.90;;;;;;6081879;23;20368;-83
2022/10/17 08:17:06;;;;;;;23.17;15.77;;;27.40;99.90;;;;;;6206689;23;20445;-82
2022/10/17 08:19:46;;;;;;;19.17;16.97;;;26.10;99.90;;;;;;6082031;23;20450;-83
2022/10/17 08:22:13;;;;;;;15.73;14.17;;;26.00;99.90;;;;;;6078893;23;20482;-84
2022/10/17 08:24:41;;;;;;;18.47;16.63;;;26.30;99.90;;;;;;6077576;23;20392;-87
2022/10/17 08:27:10;;;;;;;15.27;13.67;;;26.90;99.90;;;;;;6077697;23;20391;-84
2022/10/17 08:29:51;;;;;;;16.27;14.23;;;27.20;99.90;;;;;;6102190;23;20447;-83
2022/10/17 08:32:21;;;;;;;16.13;14.57;;;26.30;99.90;;;;;;6099195;23;20382;-84
2022/10/17 08:34:48;;;;;;;16.47;14.03;;;26.30;99.90;;;;;;6099790;23;20459;-83
2022/10/17 08:37:14;;;;;;;16.95;14.13;;;26.50;99.90;;;;;;6099741;23;20503;-85
2022/10/17 08:39:42;;;;;;;23.33;15.17;;;26.80;99.90;;;;;;6100533;23;20251;-82
2022/10/17 08:42:31;;;;;;;21.07;13.13;;;27.00;99.90;;;;;;6099350;23;20419;-82
2022/10/17 08:45:35;;;;;;;15.37;13.77;;;27.40;99.90;;;;;;6200104;23;20376;-82
2022/10/17 08:48:12;;;;;;;15.40;13.80;;;26.50;99.90;;;;;;6100865;23;20382;-82
2022/10/17 08:50:50;;;;;;;14.60;13.03;;;25.90;99.90;;;;;;6099471;23;20428;-82
2022/10/17 08:53:48;;;;;;;16.30;14.60;;;25.30;99.90;;;;;;6198188;23;20505;-83
2022/10/17 08:56:35;;;;;;;17.20;14.70;;;25.30;99.90;;;;;;6074463;23;20415;-81
2022/10/17 08:59:27;;;;;;;20.88;14.95;;;24.90;99.90;;;;;;6098591;23;20404;-84
2022/10/17 09:02:17;;;;;;;17.92;14.80;;;25.50;99.90;;;;;;6099679;23;20536;-82
2022/10/17 09:04:47;;;;;;;15.10;13.67;;;25.00;99.90;;;;;;6105963;23;20181;-82
2022/10/17 09:08:00;;;;;;;18.03;13.20;;;24.30;99.90;;;;;;6101866;23;20415;-81
2022/10/17 09:10:45;;;;;;;16.13;14.37;;;23.40;99.90;;;;;;6134229;23;20386;-83
2022/10/17 09:13:36;;;;;;;14.77;13.27;;;22.80;99.90;;;;;;6215268;23;20414;-86
2022/10/17 09:16:29;;;;;;;15.70;14.10;;;22.70;99.90;;;;;;6085454;23;20399;-84
2022/10/17 09:19:15;;;;;;;17.73;14.27;;;22.80;99.90;;;;;;6076006;23;20352;-81
2022/10/17 09:21:48;;;;;;;16.13;14.37;;;22.60;99.90;;;;;;6098812;23;20386;-82
2022/10/17 09:24:44;;;;;;;17.63;14.03;;;22.40;99.90;;;;;;6098773;23;20393;-84
2022/10/17 09:27:41;;;;;;;19.67;14.50;;;22.30;99.90;;;;;;6199818;23;20668;-82
2022/10/17 09:30:35;;;;;;;17.17;14.93;;;22.10;99.90;;;;;;6100162;23;20440;-83
2022/10/17 09:33:15;;;;;;;20.07;14.20;;;22.00;99.90;;;;;;6100585;23;20646;-82
2022/10/17 09:36:26;;;;;;;16.50;14.63;;;22.00;99.90;;;;;;6182117;23;20448;-82
2022/10/17 09:38:58;;;;;;;17.53;14.27;;;22.10;99.90;;;;;;6100102;23;20684;-87
2022/10/17 09:41:33;;;;;;;21.10;15.27;;;22.20;99.90;;;;;;6074231;23;20435;-84
2022/10/17 09:44:44;;;;;;;25.23;14.33;;;22.20;99.90;;;;;;6099077;23;20383;-85
2022/10/17 09:47:22;;;;;;;18.10;13.57;;;22.30;99.90;;;;;;6098586;23;20451;-80
2022/10/17 09:49:50;;;;;;;19.30;13.47;;;22.40;99.90;;;;;;6099630;23;20467;-81
2022/10/17 09:52:24;;;;;;;23.33;14.60;;;22.40;99.90;;;;;;6098935;23;20376;-81
2022/10/17 09:54:55;;;;;;;36.77;15.60;;;22.40;99.90;;;;;;6098681;23;20352;-83
2022/10/17 09:57:22;;;;;;;18.53;12.80;;;22.40;99.90;;;;;;6073644;23;20425;-84
2022/10/17 09:59:59;;;;;;;16.83;12.70;;;22.50;99.90;;;;;;6098130;23;20375;-82
2022/10/17 10:02:28;;;;;;;17.80;13.10;;;22.60;99.90;;;;;;6199327;23;20185;-87
2022/10/17 10:05:01;;;;;;;15.17;13.60;;;22.60;99.90;;;;;;6099445;23;20775;-88
2022/10/17 10:07:35;;;;;;;15.63;13.27;;;22.50;99.90;;;;;;6099020;23;20779;-83
2022/10/17 10:10:06;;;;;;;16.70;13.37;;;22.60;99.90;;;;;;6073088;23;20410;-80
2022/10/17 10:12:38;;;;;;;15.77;13.68;;;22.60;99.90;;;;;;6196966;23;20383;-81
2022/10/17 10:15:32;;;;;;;18.30;13.40;;;22.60;99.90;;;;;;6097681;23;20183;-84
2022/10/17 10:18:01;;;;;;;13.73;12.30;;;22.70;99.90;;;;;;6098347;23;20416;-82
2022/10/17 10:20:33;;;;;;;15.40;13.50;;;22.80;99.90;;;;;;6073001;23;20435;-82
2022/10/17 10:23:13;;;;;;;14.47;12.03;;;22.90;99.90;;;;;;6097865;23;20443;-86
2022/10/17 10:25:55;;;;;;;16.67;12.57;;;22.90;99.90;;;;;;6096147;23;20373;-81
2022/10/17 10:28:28;;;;;;;18.37;11.60;;;23.00;99.90;;;;;;6097812;23;20689;-82
2022/10/17 10:30:59;;;;;;;12.50;10.73;;;23.00;99.90;;;;;;6096844;23;20435;-83
2022/10/17 10:33:29;;;;;;;13.07;11.87;;;23.00;99.90;;;;;;6098845;23;20395;-82
2022/10/17 10:36:02;;;;;;;12.10;10.80;;;23.00;99.90;;;;;;6098668;23;20410;-86
2022/10/17 10:38:31;;;;;;;12.87;11.47;;;22.90;99.90;;;;;;6073986;23;20375;-85
2022/10/17 10:41:07;;;;;;;15.70;11.50;;;22.90;99.90;;;;;;6198964;23;20772;-85
2022/10/17 10:43:40;;;;;;;12.77;11.53;;;22.90;99.90;;;;;;6199704;23;20171;-84
2022/10/17 10:46:20;;;;;;;15.33;12.20;;;23.00;99.90;;;;;;6097205;23;20373;-82
2022/10/17 10:48:59;;;;;;;16.50;12.17;;;23.10;99.90;;;;;;6096604;23;20475;-81
2022/10/17 10:51:34;;;;;;;11.53;10.27;;;23.20;99.90;;;;;;6096828;23;20399;-82
2022/10/17 10:54:10;;;;;;;14.27;11.50;;;23.30;99.90;;;;;;6102392;23;21028;-81
2022/10/17 10:56:46;;;;;;;12.35;11.10;;;23.30;99.90;;;;;;6100905;23;20432;-83
2022/10/17 10:59:30;;;;;;;13.70;11.10;;;23.30;99.90;;;;;;6196929;23;20187;-83
2022/10/17 11:02:13;;;;;;;12.97;10.33;;;23.30;99.90;;;;;;6100404;23;20433;-83
2022/10/17 11:04:57;;;;;;;13.53;11.33;;;23.30;99.90;;;;;;6202077;23;20402;-85
2022/10/17 11:07:30;;;;;;;13.00;11.60;;;23.30;99.90;;;;;;6201927;23;20431;-83
2022/10/17 11:10:14;;;;;;;13.73;12.43;;;23.30;99.90;;;;;;6099812;23;20372;-81
2022/10/17 11:13:13;;;;;;;12.03;10.33;;;23.40;99.90;;;;;;6101311;23;20348;-86
2022/10/17 11:15:56;;;;;;;13.10;11.70;;;23.40;99.90;;;;;;6101056;23;20368;-85
2022/10/17 11:18:29;;;;;;;11.57;10.40;;;23.40;99.90;;;;;;6076424;23;20364;-82
2022/10/17 11:21:23;;;;;;;13.10;10.57;;;23.50;99.90;;;;;;6101753;23;20465;-83
2022/10/17 11:24:11;;;;;;;13.80;11.90;;;23.70;99.90;;;;;;6103782;23;20432;-83
2022/10/17 11:26:54;;;;;;;15.48;12.23;;;23.70;99.90;;;;;;6206405;23;20667;-84
2022/10/17 11:29:29;;;;;;;10.97;9.87;;;23.90;99.90;;;;;;6104595;23;20179;-85
2022/10/17 11:32:19;;;;;;;11.10;9.93;;;24.00;99.90;;;;;;6204272;23;20409;-83
2022/10/17 11:34:51;;;;;;;13.17;10.30;;;24.00;99.90;;;;;;6078379;23;20367;-83
2022/10/17 11:37:41;;;;;;;17.63;11.30;;;24.10;99.90;;;;;;6102350;23;20412;-84
2022/10/17 11:40:19;;;;;;;13.00;10.97;;;24.10;99.90;;;;;;6106922;23;20357;-87
2022/10/17 11:43:10;;;;;;;12.10;10.90;;;24.20;99.90;;;;;;6105992;23;20394;-84
2022/10/17 11:45:46;;;;;;;13.13;9.17;;;24.20;99.90;;;;;;6105313;23;20349;-85
2022/10/17 11:48:22;;;;;;;12.10;10.90;;;24.20;99.90;;;;;;6099970;23;20391;-83
2022/10/17 11:51:12;;;;;;;11.47;10.00;;;24.30;99.90;;;;;;6101289;23;20377;-82
2022/10/17 11:54:27;;;;;;;11.57;10.37;;;24.40;99.90;;;;;;6100740;23;20382;-83
2022/10/17 11:57:38;;;;;;;12.80;11.50;;;24.50;99.90;;;;;;6103729;23;20491;-84
2022/10/17 12:00:32;;;;;;;15.00;10.47;;;24.60;99.90;;;;;;6100413;23;20498;-87
2022/10/17 12:03:15;;;;;;;13.27;10.90;;;24.60;99.90;;;;;;6101069;23;20556;-86
2022/10/17 12:05:54;;;;;;;18.17;11.10;;;24.60;99.90;;;;;;6100483;23;20384;-90
2022/10/17 12:08:43;;;;;;;12.37;11.07;;;24.60;99.90;;;;;;6100340;23;20444;-86
2022/10/17 12:11:35;;;;;;;13.40;9.70;;;24.60;99.90;;;;;;6101871;23;20406;-82
2022/10/17 12:14:02;;;;;;;9.97;8.77;;;24.60;99.90;;;;;;6102277;23;20374;-91
2022/10/17 12:16:37;;;;;;;11.30;9.07;;;24.80;99.90;;;;;;6101196;23;20395;-84
2022/10/17 12:19:19;;;;;;;10.20;8.97;;;24.80;99.90;;;;;;6099921;23;20413;-83
2022/10/17 12:21:58;;;;;;;10.00;9.00;;;24.90;99.90;;;;;;6099100;23;20648;-84
2022/10/17 12:24:57;;;;;;;10.63;8.37;;;24.80;99.90;;;;;;6101232;23;20667;-83
2022/10/17 12:27:41;;;;;;;19.23;10.53;;;24.80;99.90;;;;;;6104066;23;20380;-83
2022/10/17 12:30:10;;;;;;;11.75;10.32;;;24.90;99.90;;;;;;6101806;23;20435;-83
2022/10/17 12:33:11;;;;;;;10.90;9.77;;;24.90;99.90;;;;;;6102688;23;20224;-82
2022/10/17 12:35:38;;;;;;;8.80;7.90;;;25.00;99.90;;;;;;6076136;23;20352;-82
2022/10/17 12:38:17;;;;;;;11.23;9.00;;;25.00;99.90;;;;;;6075184;23;20440;-83
2022/10/17 12:40:46;;;;;;;8.67;7.87;;;25.20;99.90;;;;;;6078967;23;20389;-87
2022/10/17 12:43:27;;;;;;;8.43;7.63;;;25.30;99.90;;;;;;6109487;23;20395;-84
2022/10/17 12:45:57;;;;;;;7.60;6.77;;;25.10;99.90;;;;;;6114205;23;20370;-83
2022/10/17 12:48:36;;;;;;;9.03;8.13;;;24.90;99.90;;;;;;6114726;22;20395;-85
2022/10/17 12:51:20;;;;;;;9.17;8.23;;;24.80;99.90;;;;;;6114554;22;20472;-83
2022/10/17 12:54:11;;;;;;;10.18;9.18;;;24.80;99.90;;;;;;6112980;22;20378;-84
2022/10/17 12:56:44;;;;;;;9.13;8.17;;;24.80;99.90;;;;;;6114710;22;20190;-85
2022/10/17 12:59:27;;;;;;;10.82;9.13;;;24.80;99.90;;;;;;6215224;23;20389;-83
2022/10/17 13:01:58;;;;;;;9.17;8.30;;;24.70;99.90;;;;;;6086758;23;20175;-81
2022/10/17 13:04:26;;;;;;;9.13;7.83;;;24.60;99.90;;;;;;6078043;23;20445;-89
2022/10/17 13:06:59;;;;;;;12.07;9.37;;;24.60;99.90;;;;;;6103078;23;20420;-82
2022/10/17 13:09:32;;;;;;;10.40;8.80;;;24.40;99.90;;;;;;6100647;23;20589;-86
2022/10/17 13:12:03;;;;;;;9.53;8.63;;;24.50;99.90;;;;;;6076400;23;20678;-84
2022/10/17 13:14:32;;;;;;;10.70;7.67;;;24.50;99.90;;;;;;6200214;23;20674;-84